Time;durP1;ratioP1;P1;durP2;ratioP2;P2;SDS_P1;SDS_P2;PMS_P1;PMS_P2;Temp;Humidity;BMP_temperature;BMP_pressure;BME280_temperature;BME280_humidity;BME280_pressure;Samples;Min_cycle;Max_cycle;Signal;HPM_P1;HPM_P2
2021/11/19 00:07:22;;;;;;;1999.90;999.90;;;;;;;11.61;79.90;101774.31;15709827;28;20423;-60
2021/11/19 00:14:56;;;;;;;1999.90;999.90;;;;;;;11.45;80.43;101774.66;15704395;28;20489;-61
2021/11/19 00:22:29;;;;;;;1999.90;999.90;;;;;;;11.54;80.24;101786.75;15719049;28;20044;-60
2021/11/19 00:30:06;;;;;;;1999.90;999.90;;;;;;;11.76;79.91;101769.19;15741229;28;20177;-61
2021/11/19 00:37:41;;;;;;;1999.90;999.90;;;;;;;11.50;81.10;101771.75;15700886;28;20493;-61
2021/11/19 00:45:15;;;;;;;1999.90;999.90;;;;;;;11.65;80.76;101780.94;15723506;28;20060;-63
2021/11/19 00:52:48;;;;;;;1999.90;999.90;;;;;;;11.65;80.98;101783.72;15713999;28;20101;-63
2021/11/19 01:00:26;;;;;;;1999.90;999.90;;;;;;;11.80;80.15;101783.41;15694016;28;20033;-61
2021/11/19 01:07:59;;;;;;;1999.90;999.90;;;;;;;11.79;80.14;101782.59;15669093;28;20052;-63
2021/11/19 01:15:40;;;;;;;1999.90;999.90;;;;;;;11.81;80.06;101782.28;15702688;28;20441;-62
2021/11/19 01:23:15;;;;;;;1999.90;999.90;;;;;;;11.94;79.53;101780.56;15704099;28;20098;-62
2021/11/19 01:30:52;;;;;;;1999.90;999.90;;;;;;;12.00;79.64;101796.91;15717821;28;20506;-60
2021/11/19 01:38:26;;;;;;;1999.90;999.90;;;;;;;12.01;80.00;101792.97;15705234;28;20045;-61
2021/11/19 01:46:28;;;;;;;1999.90;999.90;;;;;;;12.19;79.89;101805.09;15705924;28;20058;-63
2021/11/19 01:54:04;;;;;;;1999.90;999.90;;;;;;;12.04;80.57;101792.34;15685397;28;20059;-61
2021/11/19 02:01:42;;;;;;;1999.90;999.90;;;;;;;12.29;79.94;101787.22;15684078;28;20028;-60
2021/11/19 02:09:25;;;;;;;1999.90;999.90;;;;;;;12.25;80.51;101784.25;15678620;28;20072;-61
2021/11/19 02:17:01;;;;;;;1999.90;999.90;;;;;;;12.22;80.61;101776.50;15712733;28;20044;-61
2021/11/19 02:24:38;;;;;;;1999.90;999.90;;;;;;;12.20;80.90;101764.81;15693664;28;20102;-61
2021/11/19 02:32:18;;;;;;;1999.90;999.90;;;;;;;12.39;80.64;101764.59;15698127;28;20087;-60
2021/11/19 02:40:01;;;;;;;1999.90;999.90;;;;;;;12.43;80.48;101760.84;15694591;28;20135;-60
2021/11/19 02:47:37;;;;;;;1999.90;999.90;;;;;;;12.52;80.44;101763.69;15717944;28;20123;-62
2021/11/19 02:55:18;;;;;;;1999.90;999.90;;;;;;;12.52;80.28;101774.06;15708664;28;20045;-61
2021/11/19 03:02:54;;;;;;;1999.90;999.90;;;;;;;12.39;81.10;101775.78;15676102;28;20037;-58
2021/11/19 03:10:32;;;;;;;1999.90;999.90;;;;;;;12.59;80.48;101758.44;15689611;28;20123;-60
2021/11/19 03:18:10;;;;;;;1999.90;999.90;;;;;;;12.76;80.09;101779.28;15648988;28;20565;-62
2021/11/19 03:25:44;;;;;;;1999.90;999.90;;;;;;;12.66;80.68;101770.00;15662532;28;20060;-60
2021/11/19 03:33:22;;;;;;;;;;;;;;;12.80;80.46;101780.28;15682661;28;20127;-61
2021/11/19 03:40:58;;;;;;;1999.90;999.90;;;;;;;12.85;80.45;101786.59;15672676;28;19921;-61
2021/11/19 03:48:34;;;;;;;1999.90;999.90;;;;;;;12.83;80.87;101782.47;15718904;28;20052;-56
2021/11/19 03:56:07;;;;;;;1999.90;999.90;;;;;;;12.41;83.17;101793.94;15697699;28;20041;-61
2021/11/19 04:03:42;;;;;;;1999.90;999.90;;;;;;;12.58;82.82;101792.38;15679461;28;20494;-64
2021/11/19 04:11:15;;;;;;;1999.90;999.90;;;;;;;12.35;84.39;101797.16;15700713;28;20483;-62
2021/11/19 04:18:50;;;;;;;1999.90;999.90;;;;;;;12.54;84.02;101806.19;15688927;28;20045;-62
2021/11/19 04:26:25;;;;;;;1999.90;999.90;;;;;;;12.51;83.72;101806.00;15679665;28;20041;-62
2021/11/19 04:34:00;;;;;;;1999.90;999.90;;;;;;;12.64;84.15;101811.53;15705124;28;20444;-64
2021/11/19 04:41:34;;;;;;;1999.90;999.90;;;;;;;12.56;84.94;101805.88;15719218;28;20040;-64
2021/11/19 04:49:10;;;;;;;1999.90;999.90;;;;;;;12.43;85.54;101788.84;15726070;28;20091;-64
2021/11/19 04:56:44;;;;;;;1999.90;999.90;;;;;;;12.51;84.90;101794.81;15712393;28;20036;-64
2021/11/19 05:04:19;;;;;;;1999.90;999.90;;;;;;;12.64;84.50;101793.91;15694883;28;20037;-63
2021/11/19 05:11:56;;;;;;;1999.90;999.90;;;;;;;12.83;83.25;101793.66;15674461;28;20044;-64
2021/11/19 05:19:30;;;;;;;1999.90;999.90;;;;;;;12.98;82.26;101796.84;15699899;28;20557;-62
2021/11/19 05:27:04;;;;;;;1999.90;999.90;;;;;;;12.65;83.58;101801.16;15703103;28;20055;-62
2021/11/19 05:34:39;;;;;;;1999.90;999.90;;;;;;;12.87;82.54;101797.47;15700844;28;20454;-64
2021/11/19 05:42:12;;;;;;;1999.90;999.90;;;;;;;13.09;81.71;101796.56;15717319;28;20052;-62
2021/11/19 05:49:46;;;;;;;;;;;;;;;12.75;82.68;101795.28;15696694;28;20401;-61
2021/11/19 05:57:19;;;;;;;1999.90;999.90;;;;;;;12.97;81.63;101792.41;15699010;28;20006;-62
2021/11/19 06:04:53;;;;;;;1999.90;999.90;;;;;;;12.90;82.15;101789.22;15711592;28;20061;-61
2021/11/19 06:12:53;;;;;;;1999.90;999.90;;;;;;;13.26;80.79;101805.91;15690975;28;20345;-61
2021/11/19 06:20:29;;;;;;;1999.90;999.90;;;;;;;13.17;81.12;101821.00;15675876;28;20029;-62
2021/11/19 06:28:13;;;;;;;1999.90;999.90;;;;;;;13.19;80.73;101829.94;15683828;28;20079;-61
2021/11/19 06:35:47;;;;;;;1999.90;999.90;;;;;;;12.97;81.91;101831.63;15684552;28;20037;-60
2021/11/19 06:43:20;;;;;;;1999.90;999.90;;;;;;;13.11;80.92;101839.94;15702816;28;20041;-60
2021/11/19 06:51:15;;;;;;;1999.90;999.90;;;;;;;13.25;80.38;101843.50;15731340;28;20428;-61
2021/11/19 06:59:01;;;;;;;1999.90;999.90;;;;;;;13.06;81.52;101847.66;15723575;28;20045;-61
2021/11/19 07:06:37;;;;;;;1999.90;999.90;;;;;;;13.14;81.35;101844.09;15744114;28;20586;-63
2021/11/19 07:14:10;;;;;;;1999.90;999.90;;;;;;;13.23;80.96;101843.00;15748340;28;20036;-62
2021/11/19 07:21:45;;;;;;;1999.90;999.90;;;;;;;13.18;81.54;101843.09;15674897;28;20041;-62
2021/11/19 07:29:18;;;;;;;1999.90;999.90;;;;;;;13.36;81.46;101860.84;15688388;28;20178;-62
2021/11/19 07:37:07;;;;;;;1999.90;999.90;;;;;;;13.06;82.88;101868.09;15687805;28;20065;-61
2021/11/19 07:44:47;;;;;;;1999.90;999.90;;;;;;;13.20;82.30;101859.63;15669348;28;20049;-61
2021/11/19 07:52:31;;;;;;;1999.90;999.90;;;;;;;13.02;83.28;101853.06;15669454;28;20049;-62
2021/11/19 08:00:08;;;;;;;1999.90;999.90;;;;;;;13.22;82.16;101869.34;15668858;28;20053;-62
2021/11/19 08:07:52;;;;;;;1999.90;999.90;;;;;;;13.35;81.72;101867.59;15686077;28;20033;-60
2021/11/19 08:15:35;;;;;;;1999.90;999.90;;;;;;;13.34;80.83;101870.72;15684008;28;20470;-61
2021/11/19 08:23:12;;;;;;;1999.90;999.90;;;;;;;13.40;80.71;101878.66;15683149;28;20040;-61
2021/11/19 08:30:47;;;;;;;1999.90;999.90;;;;;;;13.58;80.29;101874.78;15683569;28;20460;-61
2021/11/19 08:38:24;;;;;;;1999.90;999.90;;;;;;;13.71;79.59;101889.00;15682800;28;20049;-61
2021/11/19 08:46:03;;;;;;;1999.90;999.90;;;;;;;13.53;80.48;101897.34;15682115;28;20119;-60
2021/11/19 08:53:38;;;;;;;1999.90;999.90;;;;;;;13.30;81.41;101892.97;15672915;28;20063;-62
2021/11/19 09:01:12;;;;;;;1999.90;999.90;;;;;;;13.68;80.11;101901.69;15683937;28;20075;-62
2021/11/19 09:08:48;;;;;;;1999.90;999.90;;;;;;;13.66;81.03;101906.81;15683697;28;20080;-62
2021/11/19 09:16:27;;;;;;;1999.90;999.90;;;;;;;13.67;81.53;101904.84;15680912;28;20401;-63
2021/11/19 09:24:03;;;;;;;1999.90;999.90;;;;;;;13.43;82.36;101911.66;15680510;28;20099;-62
2021/11/19 09:31:37;;;;;;;1999.90;999.90;;;;;;;13.22;84.20;101890.94;15681484;28;20081;-61
2021/11/19 09:39:14;;;;;;;1999.90;999.90;;;;;;;13.38;83.66;101903.41;15681338;28;20086;-62
2021/11/19 09:47:08;;;;;;;1999.90;999.90;;;;;;;13.60;82.89;101898.84;15679042;28;20068;-62
2021/11/19 09:55:13;;;;;;;1999.90;999.90;;;;;;;13.75;81.88;101899.22;15662642;28;20055;-64
2021/11/19 10:03:10;;;;;;;1999.90;999.90;;;;;;;13.50;82.76;101903.59;15664313;22;20063;-61
2021/11/19 10:10:55;;;;;;;1999.90;999.90;;;;;;;13.48;82.88;101894.69;15657417;28;20493;-59
2021/11/19 10:18:33;;;;;;;1999.90;999.90;;;;;;;13.92;81.17;101889.19;15614368;28;20395;-57
2021/11/19 10:26:13;;;;;;;1999.90;999.90;;;;;;;13.78;80.96;101887.38;15614273;28;20125;-64
2021/11/19 10:33:57;;;;;;;1999.90;999.90;;;;;;;13.80;80.70;101887.88;15612928;28;20483;-57
2021/11/19 10:42:06;;;;;;;1999.90;999.90;;;;;;;14.04;79.49;101889.38;15613076;28;20065;-59
2021/11/19 10:49:55;;;;;;;1999.90;999.90;;;;;;;13.83;80.11;101873.16;15577847;28;20063;-58
2021/11/19 10:58:01;;;;;;;1999.90;999.90;;;;;;;13.84;79.98;101891.66;15593288;28;20052;-61
2021/11/19 11:05:36;;;;;;;1999.90;999.90;;;;;;;13.81;79.60;101883.91;15538808;28;20506;-61
2021/11/19 11:13:28;;;;;;;1999.90;999.90;;;;;;;13.98;79.46;101891.53;15611081;28;20469;-59
2021/11/19 11:21:24;;;;;;;1999.90;999.90;;;;;;;14.24;78.63;101896.34;15613691;28;20055;-59
2021/11/19 11:29:01;;;;;;;1999.90;999.90;;;;;;;14.04;78.68;101875.34;15653383;28;20045;-60
2021/11/19 11:36:39;;;;;;;1999.90;999.90;;;;;;;13.92;79.36;101876.00;15671781;28;20484;-60
2021/11/19 11:44:16;;;;;;;1999.90;999.90;;;;;;;14.14;78.71;101878.66;15582985;28;20492;-61
2021/11/19 11:51:58;;;;;;;1999.90;999.90;;;;;;;13.98;78.75;101887.91;15609600;28;20350;-57
2021/11/19 11:59:35;;;;;;;1999.90;999.90;;;;;;;14.07;78.51;101886.75;15617694;28;20053;-56
2021/11/19 12:07:16;;;;;;;1999.90;999.90;;;;;;;14.05;78.70;101877.00;15619416;28;20046;-58
2021/11/19 12:15:03;;;;;;;1999.90;999.90;;;;;;;14.41;77.41;101885.13;15627200;28;20045;-62
2021/11/19 12:22:40;;;;;;;1999.90;999.90;;;;;;;14.05;78.76;101877.81;15680506;28;20049;-58
2021/11/19 12:30:23;;;;;;;1999.90;999.90;;;;;;;14.18;77.70;101870.44;15680478;28;20049;-56
2021/11/19 12:38:05;;;;;;;1999.90;999.90;;;;;;;14.40;76.24;101861.00;15679977;28;20041;-59
2021/11/19 12:45:44;;;;;;;1999.90;999.90;;;;;;;14.65;74.69;101867.78;15645517;28;20516;-63
2021/11/19 12:53:31;;;;;;;1999.90;999.90;;;;;;;14.66;74.31;101846.94;15679013;28;20412;-62
2021/11/19 13:01:36;;;;;;;1999.90;999.90;;;;;;;14.58;74.01;101861.81;15661153;28;20076;-58
2021/11/19 13:09:40;;;;;;;1999.90;999.90;;;;;;;14.81;72.99;101854.84;15643833;28;20065;-60
2021/11/19 13:17:58;;;;;;;1999.90;999.90;;;;;;;14.68;72.40;101862.31;15595224;28;20196;-62
2021/11/19 13:25:44;;;;;;;1999.90;999.90;;;;;;;15.16;70.88;101868.78;15614971;28;20155;-58
2021/11/19 13:33:26;;;;;;;1999.90;999.90;;;;;;;14.89;71.13;101862.41;15615503;28;20068;-60
2021/11/19 13:41:25;;;;;;;1999.90;999.90;;;;;;;14.88;70.76;101869.19;15615035;28;20100;-61
2021/11/19 13:49:17;;;;;;;1999.90;999.90;;;;;;;14.94;69.83;101876.31;15581015;28;20045;-62
2021/11/19 13:56:52;;;;;;;1999.90;999.90;;;;;;;14.95;69.31;101877.97;15593464;28;20700;-58
2021/11/19 14:04:30;;;;;;;1999.90;999.90;;;;;;;15.19;68.83;101882.16;15554048;28;20041;-60
2021/11/19 14:12:04;;;;;;;1999.90;999.90;;;;;;;14.89;69.19;101868.03;15594652;28;20041;-60
2021/11/19 14:19:59;;;;;;;1999.90;999.90;;;;;;;14.91;69.15;101874.19;15657597;28;20115;-61
2021/11/19 14:27:39;;;;;;;1999.90;999.90;;;;;;;14.86;69.43;101870.69;15559935;28;20120;-61
2021/11/19 14:35:23;;;;;;;1999.90;999.90;;;;;;;14.83;69.34;101863.78;15621739;28;20072;-60
2021/11/19 14:43:00;;;;;;;1999.90;999.90;;;;;;;14.82;69.11;101859.31;15565416;28;20050;-60
2021/11/19 14:58:30;;;;;;;1999.90;999.90;;;;;;;14.66;69.77;101861.00;15601410;28;20076;-59
2021/11/19 15:06:18;;;;;;;1999.90;999.90;;;;;;;14.71;69.84;101852.41;15609827;28;20417;-60
2021/11/19 15:14:14;;;;;;;1999.90;999.90;;;;;;;14.54;70.65;101867.28;15627652;28;20111;-60
2021/11/19 15:22:02;;;;;;;1999.90;999.90;;;;;;;14.53;70.46;101868.44;15671161;28;20103;-61
2021/11/19 15:29:39;;;;;;;1999.90;999.90;;;;;;;14.58;70.36;101873.06;15657687;28;20116;-59
2021/11/19 15:37:35;;;;;;;1999.90;999.90;;;;;;;14.34;71.04;101857.53;15683452;28;20053;-59
2021/11/19 15:45:09;;;;;;;1999.90;999.90;;;;;;;14.49;70.48;101856.25;15664254;28;20080;-59
2021/11/19 15:52:52;;;;;;;1999.90;999.90;;;;;;;14.29;71.32;101865.31;15664216;28;20084;-59
2021/11/19 16:00:27;;;;;;;1999.90;999.90;;;;;;;14.37;71.18;101865.28;15663254;28;20136;-59
2021/11/19 16:08:08;;;;;;;1999.90;999.90;;;;;;;14.30;71.43;101861.34;15669844;23;20102;-62
2021/11/19 16:15:46;;;;;;;1999.90;999.90;;;;;;;14.43;70.85;101852.72;15661696;28;20033;-62
2021/11/19 16:23:21;;;;;;;1999.90;999.90;;;;;;;14.52;70.72;101865.97;15678927;28;20103;-63
2021/11/19 16:30:55;;;;;;;1999.90;999.90;;;;;;;14.30;71.40;101869.75;15644437;28;20073;-62
2021/11/19 16:38:29;;;;;;;1999.90;999.90;;;;;;;14.40;70.81;101870.25;15661592;28;20037;-62
2021/11/19 16:46:02;;;;;;;1999.90;999.90;;;;;;;14.46;70.25;101870.94;15658570;28;20053;-62
2021/11/19 16:53:37;;;;;;;1999.90;999.90;;;;;;;14.25;70.43;101870.75;15677229;28;20041;-61
2021/11/19 17:01:13;;;;;;;1999.90;999.90;;;;;;;14.36;69.80;101871.22;15680100;28;20124;-62
2021/11/19 17:08:47;;;;;;;1999.90;999.90;;;;;;;14.34;69.36;101884.78;15677226;28;20044;-61
2021/11/19 17:16:23;;;;;;;1999.90;999.90;;;;;;;14.44;68.80;101871.25;15650901;28;20056;-61
2021/11/19 17:23:58;;;;;;;1999.90;999.90;;;;;;;14.57;67.69;101885.47;15705716;28;20481;-62
2021/11/19 17:31:31;;;;;;;1999.90;999.90;;;;;;;14.50;67.70;101885.97;15689468;28;20041;-63
2021/11/19 17:39:05;;;;;;;1999.90;999.90;;;;;;;14.65;67.00;101887.44;15675260;28;20148;-62
2021/11/19 17:46:41;;;;;;;1999.90;999.90;;;;;;;14.63;66.90;101889.75;15674327;28;20075;-61
2021/11/19 17:54:18;;;;;;;1999.90;999.90;;;;;;;14.57;67.08;101891.06;15654910;28;20385;-61
2021/11/19 18:01:53;;;;;;;1999.90;999.90;;;;;;;14.30;68.10;101881.00;15673644;28;20086;-61
2021/11/19 18:09:30;;;;;;;1999.90;999.90;;;;;;;14.23;68.56;101886.25;15649255;28;20115;-62
2021/11/19 18:17:17;;;;;;;1999.90;999.90;;;;;;;14.34;68.44;101879.16;15654846;28;20071;-60
2021/11/19 18:24:58;;;;;;;1999.90;999.90;;;;;;;13.97;69.66;101878.66;15671560;28;20490;-61
2021/11/19 18:32:34;;;;;;;1999.90;999.90;;;;;;;14.06;69.27;101875.84;15671079;28;20490;-60
2021/11/19 18:40:13;;;;;;;1999.90;999.90;;;;;;;14.21;69.02;101888.59;15671743;28;20065;-61
2021/11/19 18:47:48;;;;;;;1999.90;999.90;;;;;;;14.06;69.30;101887.06;15672152;28;20394;-59
2021/11/19 18:55:27;;;;;;;1999.90;999.90;;;;;;;14.16;68.97;101881.13;15672302;28;20045;-62
2021/11/19 19:03:03;;;;;;;1999.90;999.90;;;;;;;14.27;68.12;101893.69;15668078;28;20041;-64
2021/11/19 19:10:42;;;;;;;1999.90;999.90;;;;;;;14.34;68.15;101905.25;15683039;28;20060;-63
2021/11/19 19:18:19;;;;;;;1999.90;999.90;;;;;;;14.34;68.03;101907.25;15683464;28;20132;-59
2021/11/19 19:25:56;;;;;;;1999.90;999.90;;;;;;;14.13;68.63;101910.69;15666417;28;20045;-62
2021/11/19 19:33:33;;;;;;;1999.90;999.90;;;;;;;14.15;68.41;101918.78;15683028;28;20041;-60
2021/11/19 19:41:12;;;;;;;1999.90;999.90;;;;;;;14.21;67.96;101913.84;15682044;28;20284;-62
2021/11/19 19:48:47;;;;;;;1999.90;999.90;;;;;;;14.11;68.18;101909.38;15680409;28;20472;-63
2021/11/19 19:56:25;;;;;;;1999.90;999.90;;;;;;;14.39;67.58;101921.97;15681243;28;20715;-61
2021/11/19 20:04:01;;;;;;;1999.90;999.90;;;;;;;14.03;68.39;101932.63;15662970;28;20515;-62
2021/11/19 20:11:37;;;;;;;1999.90;999.90;;;;;;;14.22;67.87;101933.16;15660791;28;20379;-63
2021/11/19 20:19:15;;;;;;;1999.90;999.90;;;;;;;14.39;67.68;101955.66;15678341;28;20047;-62
2021/11/19 20:27:03;;;;;;;1999.90;999.90;;;;;;;14.42;67.91;101957.78;15678653;28;20150;-64
2021/11/19 20:34:36;;;;;;;1999.90;999.90;;;;;;;14.04;68.93;101957.56;15696275;28;20454;-60
2021/11/19 20:42:18;;;;;;;1999.90;999.90;;;;;;;14.25;68.76;101962.56;15675103;28;20045;-59
2021/11/19 20:49:52;;;;;;;1999.90;999.90;;;;;;;14.33;68.68;101950.53;15671439;28;20490;-59
2021/11/19 20:57:26;;;;;;;;;;;;;;;14.30;69.10;101934.34;15651601;28;20580;-60
2021/11/19 21:05:03;;;;;;;1999.90;999.90;;;;;;;14.14;69.94;101937.59;15670014;28;20054;-59
2021/11/19 21:12:38;;;;;;;1999.90;999.90;;;;;;;14.36;69.12;101945.06;15660438;28;20231;-60
2021/11/19 21:20:14;;;;;;;1999.90;999.90;;;;;;;14.28;69.66;101959.13;15668412;28;20438;-61
2021/11/19 21:27:52;;;;;;;1999.90;999.90;;;;;;;14.40;69.38;101954.50;15658222;28;20077;-61
2021/11/19 21:35:29;;;;;;;1999.90;999.90;;;;;;;14.30;70.09;101951.19;15666589;28;20029;-59
2021/11/19 21:43:07;;;;;;;1999.90;999.90;;;;;;;14.23;70.47;101953.63;15657793;28;20114;-60
2021/11/19 21:50:47;;;;;;;1999.90;999.90;;;;;;;14.37;69.90;101957.94;15658350;28;20339;-61
2021/11/19 21:58:40;;;;;;;1999.90;999.90;;;;;;;14.34;70.10;101952.16;15675652;28;20247;-60
2021/11/19 22:06:15;;;;;;;1999.90;999.90;;;;;;;14.16;70.73;101926.03;15709671;22;20113;-63
2021/11/19 22:13:50;;;;;;;1999.90;999.90;;;;;;;13.86;71.53;101947.47;15690444;28;20045;-62
2021/11/19 22:21:27;;;;;;;1999.90;999.90;;;;;;;13.79;71.91;101947.09;15667641;28;20084;-61
2021/11/19 22:29:02;;;;;;;1999.90;999.90;;;;;;;14.03;71.00;101953.09;15649714;28;20065;-62
2021/11/19 22:36:38;;;;;;;1999.90;999.90;;;;;;;13.99;71.18;101951.28;15633785;28;20038;-62
2021/11/19 22:44:13;;;;;;;1999.90;999.90;;;;;;;14.07;71.26;101954.13;15623468;28;20509;-63
2021/11/19 22:51:49;;;;;;;1999.90;999.90;;;;;;;14.04;71.30;101965.16;15615749;28;20128;-64
2021/11/19 22:59:25;;;;;;;1999.90;999.90;;;;;;;14.03;71.30;101963.50;15654959;28;20041;-63
2021/11/19 23:06:58;;;;;;;1999.90;999.90;;;;;;;14.01;71.52;101974.25;15648083;28;20033;-63
2021/11/19 23:14:33;;;;;;;1999.90;999.90;;;;;;;14.31;70.67;101976.13;15614086;28;20136;-62
2021/11/19 23:22:09;;;;;;;1999.90;999.90;;;;;;;14.23;71.30;101973.28;15646527;28;20080;-64
2021/11/19 23:29:45;;;;;;;1999.90;999.90;;;;;;;14.11;71.39;101968.31;15644459;28;20045;-63
2021/11/19 23:37:20;;;;;;;1999.90;999.90;;;;;;;13.81;72.57;101956.84;15630430;28;20522;-65
2021/11/19 23:44:54;;;;;;;1999.90;999.90;;;;;;;14.20;71.75;101946.72;15649010;28;20135;-63
2021/11/19 23:52:31;;;;;;;1999.90;999.90;;;;;;;13.98;72.29;101950.47;15648555;28;20045;-63
